sensor_id;sensor_type;location;lat;lon;timestamp;temperature;humidity
51815;DHT22;37874;53.158;6.766;2023-04-24T00:02:23;21.40;53.20
51815;DHT22;37874;53.158;6.766;2023-04-24T00:04:49;21.30;53.20
51815;DHT22;37874;53.158;6.766;2023-04-24T00:07:15;21.40;53.30
51815;DHT22;37874;53.158;6.766;2023-04-24T00:09:45;21.40;53.20
51815;DHT22;37874;53.158;6.766;2023-04-24T00:12:11;21.40;53.20
51815;DHT22;37874;53.158;6.766;2023-04-24T00:14:36;21.40;53.20
51815;DHT22;37874;53.158;6.766;2023-04-24T00:17:02;21.40;53.10
51815;DHT22;37874;53.158;6.766;2023-04-24T00:19:29;21.40;52.90
51815;DHT22;37874;53.158;6.766;2023-04-24T00:21:55;21.40;53.00
51815;DHT22;37874;53.158;6.766;2023-04-24T00:24:21;21.40;53.00
51815;DHT22;37874;53.158;6.766;2023-04-24T00:26:46;21.40;53.00
51815;DHT22;37874;53.158;6.766;2023-04-24T00:29:12;21.30;52.80
51815;DHT22;37874;53.158;6.766;2023-04-24T00:31:38;21.40;52.90
51815;DHT22;37874;53.158;6.766;2023-04-24T00:34:04;21.40;52.90
51815;DHT22;37874;53.158;6.766;2023-04-24T00:36:31;21.30;52.90
51815;DHT22;37874;53.158;6.766;2023-04-24T00:38:57;21.40;52.90
51815;DHT22;37874;53.158;6.766;2023-04-24T02:42:35;21.10;52.60
51815;DHT22;37874;53.158;6.766;2023-04-24T02:45:01;21.20;52.60
51815;DHT22;37874;53.158;6.766;2023-04-24T02:47:26;21.10;52.60
51815;DHT22;37874;53.158;6.766;2023-04-24T02:49:52;21.10;52.60
51815;DHT22;37874;53.158;6.766;2023-04-24T02:52:17;21.10;52.50
51815;DHT22;37874;53.158;6.766;2023-04-24T02:54:43;21.20;52.60
51815;DHT22;37874;53.158;6.766;2023-04-24T02:57:09;21.10;52.60
51815;DHT22;37874;53.158;6.766;2023-04-24T02:59:34;21.10;52.60
51815;DHT22;37874;53.158;6.766;2023-04-24T03:02:00;21.10;52.60
51815;DHT22;37874;53.158;6.766;2023-04-24T03:04:26;21.10;52.40
51815;DHT22;37874;53.158;6.766;2023-04-24T03:06:52;21.10;52.50
51815;DHT22;37874;53.158;6.766;2023-04-24T03:09:20;21.00;52.50
51815;DHT22;37874;53.158;6.766;2023-04-24T03:11:46;21.00;52.50
51815;DHT22;37874;53.158;6.766;2023-04-24T03:14:11;21.10;52.50
51815;DHT22;37874;53.158;6.766;2023-04-24T03:16:37;21.00;52.40
51815;DHT22;37874;53.158;6.766;2023-04-24T03:19:02;21.10;52.50
51815;DHT22;37874;53.158;6.766;2023-04-24T03:21:28;21.00;52.50
51815;DHT22;37874;53.158;6.766;2023-04-24T03:23:54;21.00;52.50
51815;DHT22;37874;53.158;6.766;2023-04-24T03:26:20;21.00;52.40
51815;DHT22;37874;53.158;6.766;2023-04-24T03:28:45;21.00;52.40
51815;DHT22;37874;53.158;6.766;2023-04-24T03:31:11;21.00;52.40
51815;DHT22;37874;53.158;6.766;2023-04-24T03:33:36;21.00;52.40
51815;DHT22;37874;53.158;6.766;2023-04-24T03:36:02;21.00;52.30
51815;DHT22;37874;53.158;6.766;2023-04-24T03:38:28;21.00;52.40
51815;DHT22;37874;53.158;6.766;2023-04-24T03:40:53;21.00;52.40
51815;DHT22;37874;53.158;6.766;2023-04-24T03:43:19;21.00;52.40
51815;DHT22;37874;53.158;6.766;2023-04-24T03:45:44;21.00;52.30
51815;DHT22;37874;53.158;6.766;2023-04-24T03:48:10;21.00;52.40
51815;DHT22;37874;53.158;6.766;2023-04-24T03:50:36;21.00;52.30
51815;DHT22;37874;53.158;6.766;2023-04-24T03:53:01;21.00;52.40
51815;DHT22;37874;53.158;6.766;2023-04-24T03:55:27;21.00;52.30
51815;DHT22;37874;53.158;6.766;2023-04-24T03:57:53;21.00;52.30
51815;DHT22;37874;53.158;6.766;2023-04-24T04:00:18;21.00;52.20
51815;DHT22;37874;53.158;6.766;2023-04-24T04:02:44;20.90;52.20
51815;DHT22;37874;53.158;6.766;2023-04-24T04:05:10;21.00;52.20
51815;DHT22;37874;53.158;6.766;2023-04-24T04:07:36;21.00;52.30
51815;DHT22;37874;53.158;6.766;2023-04-24T04:10:01;20.90;52.30
51815;DHT22;37874;53.158;6.766;2023-04-24T04:12:27;20.90;52.20
51815;DHT22;37874;53.158;6.766;2023-04-24T04:14:52;20.90;52.30
51815;DHT22;37874;53.158;6.766;2023-04-24T04:17:18;20.90;52.40
51815;DHT22;37874;53.158;6.766;2023-04-24T04:19:44;20.90;52.30
51815;DHT22;37874;53.158;6.766;2023-04-24T04:22:10;20.90;52.30
51815;DHT22;37874;53.158;6.766;2023-04-24T04:24:35;20.90;52.40
51815;DHT22;37874;53.158;6.766;2023-04-24T04:27:04;20.90;52.40
51815;DHT22;37874;53.158;6.766;2023-04-24T04:29:30;20.80;52.30
51815;DHT22;37874;53.158;6.766;2023-04-24T04:31:57;20.90;52.30
51815;DHT22;37874;53.158;6.766;2023-04-24T04:34:22;20.90;52.30
51815;DHT22;37874;53.158;6.766;2023-04-24T04:36:48;20.90;52.40
51815;DHT22;37874;53.158;6.766;2023-04-24T04:39:15;20.90;52.50
51815;DHT22;37874;53.158;6.766;2023-04-24T04:41:42;21.10;52.60
51815;DHT22;37874;53.158;6.766;2023-04-24T04:44:07;20.90;52.30
51815;DHT22;37874;53.158;6.766;2023-04-24T04:46:34;20.90;52.20
51815;DHT22;37874;53.158;6.766;2023-04-24T04:49:00;20.90;52.30
51815;DHT22;37874;53.158;6.766;2023-04-24T04:51:26;20.90;52.30
51815;DHT22;37874;53.158;6.766;2023-04-24T04:53:52;20.90;52.30
51815;DHT22;37874;53.158;6.766;2023-04-24T04:56:18;20.80;52.30
51815;DHT22;37874;53.158;6.766;2023-04-24T04:58:44;20.80;52.30
51815;DHT22;37874;53.158;6.766;2023-04-24T05:01:09;20.90;52.30
51815;DHT22;37874;53.158;6.766;2023-04-24T05:03:35;20.80;52.20
51815;DHT22;37874;53.158;6.766;2023-04-24T05:06:01;20.80;52.30
51815;DHT22;37874;53.158;6.766;2023-04-24T05:08:27;20.80;52.30
51815;DHT22;37874;53.158;6.766;2023-04-24T05:10:53;20.90;52.30
51815;DHT22;37874;53.158;6.766;2023-04-24T05:13:20;20.90;52.40
51815;DHT22;37874;53.158;6.766;2023-04-24T05:15:45;20.80;52.30
51815;DHT22;37874;53.158;6.766;2023-04-24T05:18:11;20.90;52.30
51815;DHT22;37874;53.158;6.766;2023-04-24T05:20:37;20.90;52.40
51815;DHT22;37874;53.158;6.766;2023-04-24T05:23:02;20.80;52.30
51815;DHT22;37874;53.158;6.766;2023-04-24T05:25:28;20.90;52.30
51815;DHT22;37874;53.158;6.766;2023-04-24T05:27:53;20.80;52.40
51815;DHT22;37874;53.158;6.766;2023-04-24T05:30:19;20.80;52.20
51815;DHT22;37874;53.158;6.766;2023-04-24T05:32:45;20.90;52.30
51815;DHT22;37874;53.158;6.766;2023-04-24T05:35:11;20.80;52.20
51815;DHT22;37874;53.158;6.766;2023-04-24T05:37:37;20.80;52.10
51815;DHT22;37874;53.158;6.766;2023-04-24T05:40:03;20.80;52.10
51815;DHT22;37874;53.158;6.766;2023-04-24T05:42:30;20.80;52.20
51815;DHT22;37874;53.158;6.766;2023-04-24T05:44:56;20.80;52.10
51815;DHT22;37874;53.158;6.766;2023-04-24T05:47:22;20.80;52.10
51815;DHT22;37874;53.158;6.766;2023-04-24T05:49:48;20.80;52.10
51815;DHT22;37874;53.158;6.766;2023-04-24T05:52:13;20.80;52.20
51815;DHT22;37874;53.158;6.766;2023-04-24T05:54:39;20.80;52.10
51815;DHT22;37874;53.158;6.766;2023-04-24T05:57:05;20.80;52.10
51815;DHT22;37874;53.158;6.766;2023-04-24T05:59:35;20.80;52.10
51815;DHT22;37874;53.158;6.766;2023-04-24T06:02:00;20.80;52.00
51815;DHT22;37874;53.158;6.766;2023-04-24T06:04:26;20.80;52.10
51815;DHT22;37874;53.158;6.766;2023-04-24T06:06:51;20.80;52.00
51815;DHT22;37874;53.158;6.766;2023-04-24T06:09:21;20.70;52.00
51815;DHT22;37874;53.158;6.766;2023-04-24T06:11:47;20.80;52.10
51815;DHT22;37874;53.158;6.766;2023-04-24T06:14:13;20.80;52.10
51815;DHT22;37874;53.158;6.766;2023-04-24T06:16:41;20.70;52.00
51815;DHT22;37874;53.158;6.766;2023-04-24T06:19:07;20.70;52.10
51815;DHT22;37874;53.158;6.766;2023-04-24T06:21:33;20.70;52.20
51815;DHT22;37874;53.158;6.766;2023-04-24T06:23:58;20.70;52.20
51815;DHT22;37874;53.158;6.766;2023-04-24T06:26:24;20.70;52.20
51815;DHT22;37874;53.158;6.766;2023-04-24T06:28:52;20.70;52.30
51815;DHT22;37874;53.158;6.766;2023-04-24T06:31:19;20.70;52.40
51815;DHT22;37874;53.158;6.766;2023-04-24T06:33:45;20.70;52.40
51815;DHT22;37874;53.158;6.766;2023-04-24T06:36:11;20.70;52.50
51815;DHT22;37874;53.158;6.766;2023-04-24T06:38:37;20.70;52.70
51815;DHT22;37874;53.158;6.766;2023-04-24T06:41:03;20.70;52.70
51815;DHT22;37874;53.158;6.766;2023-04-24T06:43:31;20.70;52.70
51815;DHT22;37874;53.158;6.766;2023-04-24T06:45:57;20.70;52.70
51815;DHT22;37874;53.158;6.766;2023-04-24T06:48:24;20.70;52.60
51815;DHT22;37874;53.158;6.766;2023-04-24T06:50:49;20.70;53.10
51815;DHT22;37874;53.158;6.766;2023-04-24T06:53:15;20.70;52.50
51815;DHT22;37874;53.158;6.766;2023-04-24T06:55:41;20.70;52.50
51815;DHT22;37874;53.158;6.766;2023-04-24T06:58:07;20.70;52.40
51815;DHT22;37874;53.158;6.766;2023-04-24T07:00:33;20.70;52.50
51815;DHT22;37874;53.158;6.766;2023-04-24T07:02:58;20.70;52.40
51815;DHT22;37874;53.158;6.766;2023-04-24T07:05:24;20.70;52.20
51815;DHT22;37874;53.158;6.766;2023-04-24T07:07:50;20.70;52.40
51815;DHT22;37874;53.158;6.766;2023-04-24T07:10:17;20.70;52.30
51815;DHT22;37874;53.158;6.766;2023-04-24T07:12:43;20.70;52.50
51815;DHT22;37874;53.158;6.766;2023-04-24T07:15:09;20.70;52.50
51815;DHT22;37874;53.158;6.766;2023-04-24T07:17:34;20.70;52.50
51815;DHT22;37874;53.158;6.766;2023-04-24T07:20:00;20.70;52.50
51815;DHT22;37874;53.158;6.766;2023-04-24T07:22:26;20.70;52.40
51815;DHT22;37874;53.158;6.766;2023-04-24T07:24:52;20.70;52.50
51815;DHT22;37874;53.158;6.766;2023-04-24T07:27:17;20.70;52.50
51815;DHT22;37874;53.158;6.766;2023-04-24T07:29:43;20.70;52.50
51815;DHT22;37874;53.158;6.766;2023-04-24T07:32:08;20.70;52.50
51815;DHT22;37874;53.158;6.766;2023-04-24T07:34:34;20.70;52.50
51815;DHT22;37874;53.158;6.766;2023-04-24T07:37:00;20.70;52.50
51815;DHT22;37874;53.158;6.766;2023-04-24T07:39:27;20.70;52.50
51815;DHT22;37874;53.158;6.766;2023-04-24T07:41:53;20.70;52.60
51815;DHT22;37874;53.158;6.766;2023-04-24T07:44:18;20.70;52.50
51815;DHT22;37874;53.158;6.766;2023-04-24T07:46:44;20.70;53.10
51815;DHT22;37874;53.158;6.766;2023-04-24T07:49:10;20.70;52.30
51815;DHT22;37874;53.158;6.766;2023-04-24T07:51:35;20.70;52.40
51815;DHT22;37874;53.158;6.766;2023-04-24T07:54:04;20.70;52.20
51815;DHT22;37874;53.158;6.766;2023-04-24T07:56:32;20.70;52.20
51815;DHT22;37874;53.158;6.766;2023-04-24T07:58:58;20.70;52.40
51815;DHT22;37874;53.158;6.766;2023-04-24T08:01:24;20.70;52.40
51815;DHT22;37874;53.158;6.766;2023-04-24T08:03:50;20.70;52.30
51815;DHT22;37874;53.158;6.766;2023-04-24T08:06:15;20.70;52.30
51815;DHT22;37874;53.158;6.766;2023-04-24T08:08:41;20.70;52.30
51815;DHT22;37874;53.158;6.766;2023-04-24T08:11:06;20.70;52.20
51815;DHT22;37874;53.158;6.766;2023-04-24T08:13:32;20.70;52.30
51815;DHT22;37874;53.158;6.766;2023-04-24T08:15:58;20.70;52.20
51815;DHT22;37874;53.158;6.766;2023-04-24T08:18:23;20.70;52.20
51815;DHT22;37874;53.158;6.766;2023-04-24T08:20:49;20.70;52.30
51815;DHT22;37874;53.158;6.766;2023-04-24T08:23:14;20.70;52.30
51815;DHT22;37874;53.158;6.766;2023-04-24T08:25:40;20.70;52.30
51815;DHT22;37874;53.158;6.766;2023-04-24T08:28:06;20.70;52.20
51815;DHT22;37874;53.158;6.766;2023-04-24T08:30:33;20.70;52.20
51815;DHT22;37874;53.158;6.766;2023-04-24T08:32:59;20.70;52.30
51815;DHT22;37874;53.158;6.766;2023-04-24T08:35:25;20.70;52.20
51815;DHT22;37874;53.158;6.766;2023-04-24T08:37:52;20.60;52.20
51815;DHT22;37874;53.158;6.766;2023-04-24T08:40:23;20.60;52.10
51815;DHT22;37874;53.158;6.766;2023-04-24T08:42:54;20.60;52.10
51815;DHT22;37874;53.158;6.766;2023-04-24T08:45:21;20.60;51.90
51815;DHT22;37874;53.158;6.766;2023-04-24T08:47:47;20.60;52.10
51815;DHT22;37874;53.158;6.766;2023-04-24T08:50:14;20.60;52.20
51815;DHT22;37874;53.158;6.766;2023-04-24T08:52:42;20.60;52.20
51815;DHT22;37874;53.158;6.766;2023-04-24T08:55:08;20.60;52.10
51815;DHT22;37874;53.158;6.766;2023-04-24T08:57:35;20.60;52.30
51815;DHT22;37874;53.158;6.766;2023-04-24T09:00:01;20.60;52.00
51815;DHT22;37874;53.158;6.766;2023-04-24T09:02:27;20.60;52.20
51815;DHT22;37874;53.158;6.766;2023-04-24T09:04:55;20.50;52.20
51815;DHT22;37874;53.158;6.766;2023-04-24T09:07:22;20.50;52.00
51815;DHT22;37874;53.158;6.766;2023-04-24T09:09:50;20.50;52.20
51815;DHT22;37874;53.158;6.766;2023-04-24T09:12:17;20.50;52.20
51815;DHT22;37874;53.158;6.766;2023-04-24T09:14:44;20.50;52.20
51815;DHT22;37874;53.158;6.766;2023-04-24T09:17:11;20.50;52.30
51815;DHT22;37874;53.158;6.766;2023-04-24T09:19:37;20.40;52.00
51815;DHT22;37874;53.158;6.766;2023-04-24T09:22:06;20.50;52.20
51815;DHT22;37874;53.158;6.766;2023-04-24T09:24:33;20.50;52.10
51815;DHT22;37874;53.158;6.766;2023-04-24T09:26:59;20.60;52.20
51815;DHT22;37874;53.158;6.766;2023-04-24T09:29:27;20.50;51.90
51815;DHT22;37874;53.158;6.766;2023-04-24T09:31:53;20.50;51.90
51815;DHT22;37874;53.158;6.766;2023-04-24T09:34:26;20.40;51.90
51815;DHT22;37874;53.158;6.766;2023-04-24T09:36:52;20.40;51.70
51815;DHT22;37874;53.158;6.766;2023-04-24T09:39:19;20.40;52.10
51815;DHT22;37874;53.158;6.766;2023-04-24T09:41:56;20.50;52.10
51815;DHT22;37874;53.158;6.766;2023-04-24T09:44:27;20.40;51.90
51815;DHT22;37874;53.158;6.766;2023-04-24T09:46:55;20.30;51.80
51815;DHT22;37874;53.158;6.766;2023-04-24T09:49:28;20.40;51.90
51815;DHT22;37874;53.158;6.766;2023-04-24T09:52:08;20.40;52.00
51815;DHT22;37874;53.158;6.766;2023-04-24T09:54:34;20.50;52.10
51815;DHT22;37874;53.158;6.766;2023-04-24T09:57:02;20.40;52.00
51815;DHT22;37874;53.158;6.766;2023-04-24T09:59:27;20.40;51.90
51815;DHT22;37874;53.158;6.766;2023-04-24T10:01:53;20.40;52.00
51815;DHT22;37874;53.158;6.766;2023-04-24T10:04:23;20.40;52.00
51815;DHT22;37874;53.158;6.766;2023-04-24T10:06:51;20.40;52.00
51815;DHT22;37874;53.158;6.766;2023-04-24T10:09:18;20.40;52.10
51815;DHT22;37874;53.158;6.766;2023-04-24T10:11:46;20.40;52.00
51815;DHT22;37874;53.158;6.766;2023-04-24T10:14:20;20.40;51.80
51815;DHT22;37874;53.158;6.766;2023-04-24T10:16:46;20.40;51.90
51815;DHT22;37874;53.158;6.766;2023-04-24T10:19:13;20.40;51.80
51815;DHT22;37874;53.158;6.766;2023-04-24T10:21:40;20.50;52.10
51815;DHT22;37874;53.158;6.766;2023-04-24T10:24:08;20.40;52.20
51815;DHT22;37874;53.158;6.766;2023-04-24T10:26:35;20.40;52.00
51815;DHT22;37874;53.158;6.766;2023-04-24T10:29:01;20.40;52.10
51815;DHT22;37874;53.158;6.766;2023-04-24T10:31:31;20.40;52.50
51815;DHT22;37874;53.158;6.766;2023-04-24T10:33:58;20.40;52.00
51815;DHT22;37874;53.158;6.766;2023-04-24T10:36:25;20.50;52.40
51815;DHT22;37874;53.158;6.766;2023-04-24T10:38:54;20.50;51.80
51815;DHT22;37874;53.158;6.766;2023-04-24T10:41:21;20.50;51.70
51815;DHT22;37874;53.158;6.766;2023-04-24T10:44:03;20.50;51.60
51815;DHT22;37874;53.158;6.766;2023-04-24T10:46:30;20.50;51.30
51815;DHT22;37874;53.158;6.766;2023-04-24T10:48:56;20.50;51.20
51815;DHT22;37874;53.158;6.766;2023-04-24T10:51:24;20.50;51.20
51815;DHT22;37874;53.158;6.766;2023-04-24T10:54:30;20.50;51.20
51815;DHT22;37874;53.158;6.766;2023-04-24T11:00:33;20.50;50.90
51815;DHT22;37874;53.158;6.766;2023-04-24T11:02:38;20.50;50.60
51815;DHT22;37874;53.158;6.766;2023-04-24T11:05:04;20.50;50.90
51815;DHT22;37874;53.158;6.766;2023-04-24T11:07:29;20.50;50.80
51815;DHT22;37874;53.158;6.766;2023-04-24T11:09:58;20.50;50.70
51815;DHT22;37874;53.158;6.766;2023-04-24T11:12:26;20.50;50.80
51815;DHT22;37874;53.158;6.766;2023-04-24T11:15:00;20.60;50.80
51815;DHT22;37874;53.158;6.766;2023-04-24T11:17:32;20.60;50.70
51815;DHT22;37874;53.158;6.766;2023-04-24T11:20:07;20.60;50.10
51815;DHT22;37874;53.158;6.766;2023-04-24T11:22:35;20.60;50.40
51815;DHT22;37874;53.158;6.766;2023-04-24T11:25:03;20.60;50.40
51815;DHT22;37874;53.158;6.766;2023-04-24T11:27:42;20.60;50.20
51815;DHT22;37874;53.158;6.766;2023-04-24T11:30:09;20.60;50.10
51815;DHT22;37874;53.158;6.766;2023-04-24T11:32:40;20.90;50.00
51815;DHT22;37874;53.158;6.766;2023-04-24T11:35:14;20.50;50.50
51815;DHT22;37874;53.158;6.766;2023-04-24T11:37:44;20.50;50.70
51815;DHT22;37874;53.158;6.766;2023-04-24T11:40:13;20.50;50.50
51815;DHT22;37874;53.158;6.766;2023-04-24T11:42:45;20.60;50.20
51815;DHT22;37874;53.158;6.766;2023-04-24T11:45:17;20.50;50.20
51815;DHT22;37874;53.158;6.766;2023-04-24T11:47:44;20.50;49.80
51815;DHT22;37874;53.158;6.766;2023-04-24T11:50:15;20.40;49.90
51815;DHT22;37874;53.158;6.766;2023-04-24T11:52:43;20.50;50.40
51815;DHT22;37874;53.158;6.766;2023-04-24T11:57:46;20.40;50.20
51815;DHT22;37874;53.158;6.766;2023-04-24T12:00:16;20.40;50.10
51815;DHT22;37874;53.158;6.766;2023-04-24T12:02:42;20.40;49.80
51815;DHT22;37874;53.158;6.766;2023-04-24T12:05:08;20.40;49.80
51815;DHT22;37874;53.158;6.766;2023-04-24T12:07:41;20.40;50.00
51815;DHT22;37874;53.158;6.766;2023-04-24T12:10:10;20.40;49.90
51815;DHT22;37874;53.158;6.766;2023-04-24T12:12:35;20.40;49.80
51815;DHT22;37874;53.158;6.766;2023-04-24T12:15:01;20.40;49.50
51815;DHT22;37874;53.158;6.766;2023-04-24T12:17:33;20.50;49.60
51815;DHT22;37874;53.158;6.766;2023-04-24T12:20:04;20.30;49.70
51815;DHT22;37874;53.158;6.766;2023-04-24T12:23:08;20.30;49.50
51815;DHT22;37874;53.158;6.766;2023-04-24T12:25:34;20.30;49.70
51815;DHT22;37874;53.158;6.766;2023-04-24T12:30:29;20.30;48.90
51815;DHT22;37874;53.158;6.766;2023-04-24T12:32:57;20.20;49.30
51815;DHT22;37874;53.158;6.766;2023-04-24T12:35:28;20.20;49.30
51815;DHT22;37874;53.158;6.766;2023-04-24T12:37:54;20.20;49.30
51815;DHT22;37874;53.158;6.766;2023-04-24T12:40:25;20.20;49.70
51815;DHT22;37874;53.158;6.766;2023-04-24T12:42:51;20.20;49.60
51815;DHT22;37874;53.158;6.766;2023-04-24T12:45:18;20.20;49.40
51815;DHT22;37874;53.158;6.766;2023-04-24T12:47:45;20.20;49.30
51815;DHT22;37874;53.158;6.766;2023-04-24T12:50:13;20.30;49.20
51815;DHT22;37874;53.158;6.766;2023-04-24T12:52:39;20.20;48.90
51815;DHT22;37874;53.158;6.766;2023-04-24T12:55:06;20.30;49.30
51815;DHT22;37874;53.158;6.766;2023-04-24T12:57:38;20.30;49.20
51815;DHT22;37874;53.158;6.766;2023-04-24T13:00:05;20.30;49.00
51815;DHT22;37874;53.158;6.766;2023-04-24T13:02:31;20.30;48.80
51815;DHT22;37874;53.158;6.766;2023-04-24T13:04:57;20.30;48.50
51815;DHT22;37874;53.158;6.766;2023-04-24T13:07:23;20.30;48.50
51815;DHT22;37874;53.158;6.766;2023-04-24T13:09:50;20.30;48.80
51815;DHT22;37874;53.158;6.766;2023-04-24T13:12:16;20.30;48.60
51815;DHT22;37874;53.158;6.766;2023-04-24T13:14:42;20.30;48.90
51815;DHT22;37874;53.158;6.766;2023-04-24T13:17:08;20.30;49.00
51815;DHT22;37874;53.158;6.766;2023-04-24T13:19:38;20.30;48.60
51815;DHT22;37874;53.158;6.766;2023-04-24T13:22:05;20.30;48.40
51815;DHT22;37874;53.158;6.766;2023-04-24T13:24:31;20.20;48.90
51815;DHT22;37874;53.158;6.766;2023-04-24T13:26:57;20.20;48.70
51815;DHT22;37874;53.158;6.766;2023-04-24T13:29:23;20.20;49.10
51815;DHT22;37874;53.158;6.766;2023-04-24T13:31:53;20.30;49.20
51815;DHT22;37874;53.158;6.766;2023-04-24T13:34:25;20.10;49.00
51815;DHT22;37874;53.158;6.766;2023-04-24T13:36:53;20.10;49.40
51815;DHT22;37874;53.158;6.766;2023-04-24T13:39:19;20.10;49.40
51815;DHT22;37874;53.158;6.766;2023-04-24T13:41:44;20.10;49.20
51815;DHT22;37874;53.158;6.766;2023-04-24T13:44:12;20.10;49.50
51815;DHT22;37874;53.158;6.766;2023-04-24T13:46:38;20.10;49.60
51815;DHT22;37874;53.158;6.766;2023-04-24T13:49:03;20.10;49.90
51815;DHT22;37874;53.158;6.766;2023-04-24T13:51:29;20.10;50.00
51815;DHT22;37874;53.158;6.766;2023-04-24T13:53:55;20.10;49.90
51815;DHT22;37874;53.158;6.766;2023-04-24T13:56:21;20.10;50.00
51815;DHT22;37874;53.158;6.766;2023-04-24T13:58:48;20.10;49.70
51815;DHT22;37874;53.158;6.766;2023-04-24T14:01:14;20.10;49.90
51815;DHT22;37874;53.158;6.766;2023-04-24T14:03:41;20.10;49.80
51815;DHT22;37874;53.158;6.766;2023-04-24T14:06:08;20.10;49.60
51815;DHT22;37874;53.158;6.766;2023-04-24T14:08:34;20.10;49.30
51815;DHT22;37874;53.158;6.766;2023-04-24T14:10:59;20.00;49.50
51815;DHT22;37874;53.158;6.766;2023-04-24T14:13:25;20.00;49.30
51815;DHT22;37874;53.158;6.766;2023-04-24T14:15:51;20.00;48.90
51815;DHT22;37874;53.158;6.766;2023-04-24T14:18:18;20.00;49.50
51815;DHT22;37874;53.158;6.766;2023-04-24T14:20:44;20.00;49.40
51815;DHT22;37874;53.158;6.766;2023-04-24T14:23:09;20.00;49.10
51815;DHT22;37874;53.158;6.766;2023-04-24T14:25:35;20.00;49.50
51815;DHT22;37874;53.158;6.766;2023-04-24T14:28:01;19.90;49.30
51815;DHT22;37874;53.158;6.766;2023-04-24T14:30:26;19.90;49.40
51815;DHT22;37874;53.158;6.766;2023-04-24T14:32:52;19.90;49.50
51815;DHT22;37874;53.158;6.766;2023-04-24T14:35:17;19.80;49.60
51815;DHT22;37874;53.158;6.766;2023-04-24T14:37:43;19.80;49.70
51815;DHT22;37874;53.158;6.766;2023-04-24T14:40:09;19.80;49.60
51815;DHT22;37874;53.158;6.766;2023-04-24T14:42:35;19.80;49.60
51815;DHT22;37874;53.158;6.766;2023-04-24T14:45:01;19.80;49.80
51815;DHT22;37874;53.158;6.766;2023-04-24T14:47:27;19.90;49.70
51815;DHT22;37874;53.158;6.766;2023-04-24T14:49:53;19.80;49.90
51815;DHT22;37874;53.158;6.766;2023-04-24T14:52:18;19.80;49.90
51815;DHT22;37874;53.158;6.766;2023-04-24T14:54:44;19.90;50.00
51815;DHT22;37874;53.158;6.766;2023-04-24T14:57:10;19.80;49.90
51815;DHT22;37874;53.158;6.766;2023-04-24T14:59:36;19.70;49.80
51815;DHT22;37874;53.158;6.766;2023-04-24T15:02:01;19.80;49.80
51815;DHT22;37874;53.158;6.766;2023-04-24T15:04:28;19.80;50.10
51815;DHT22;37874;53.158;6.766;2023-04-24T15:06:54;19.80;49.90
51815;DHT22;37874;53.158;6.766;2023-04-24T15:09:21;19.80;50.00
51815;DHT22;37874;53.158;6.766;2023-04-24T15:11:47;19.80;49.80
51815;DHT22;37874;53.158;6.766;2023-04-24T15:14:13;19.80;49.70
51815;DHT22;37874;53.158;6.766;2023-04-24T15:16:38;19.80;49.70
51815;DHT22;37874;53.158;6.766;2023-04-24T15:19:04;19.80;49.60
51815;DHT22;37874;53.158;6.766;2023-04-24T15:21:29;19.70;49.70
51815;DHT22;37874;53.158;6.766;2023-04-24T15:23:56;19.80;49.80
51815;DHT22;37874;53.158;6.766;2023-04-24T15:26:22;19.70;49.50
51815;DHT22;37874;53.158;6.766;2023-04-24T15:28:48;19.70;49.70
51815;DHT22;37874;53.158;6.766;2023-04-24T15:31:14;19.70;49.80
51815;DHT22;37874;53.158;6.766;2023-04-24T15:33:40;19.70;49.80
51815;DHT22;37874;53.158;6.766;2023-04-24T15:36:06;19.70;49.70
51815;DHT22;37874;53.158;6.766;2023-04-24T15:38:32;19.70;49.50
51815;DHT22;37874;53.158;6.766;2023-04-24T15:40:57;19.60;49.80
51815;DHT22;37874;53.158;6.766;2023-04-24T15:43:23;19.60;49.80
51815;DHT22;37874;53.158;6.766;2023-04-24T15:45:52;19.60;49.90
51815;DHT22;37874;53.158;6.766;2023-04-24T15:48:18;19.60;50.00
51815;DHT22;37874;53.158;6.766;2023-04-24T15:50:44;19.60;49.80
51815;DHT22;37874;53.158;6.766;2023-04-24T15:53:09;19.60;49.90
51815;DHT22;37874;53.158;6.766;2023-04-24T15:55:35;19.60;50.00
51815;DHT22;37874;53.158;6.766;2023-04-24T15:58:01;19.60;50.00
51815;DHT22;37874;53.158;6.766;2023-04-24T16:00:27;19.60;50.10
51815;DHT22;37874;53.158;6.766;2023-04-24T16:02:59;19.60;49.90
51815;DHT22;37874;53.158;6.766;2023-04-24T16:05:25;19.50;49.90
51815;DHT22;37874;53.158;6.766;2023-04-24T16:07:51;19.50;50.00
51815;DHT22;37874;53.158;6.766;2023-04-24T16:10:16;19.50;50.00
51815;DHT22;37874;53.158;6.766;2023-04-24T16:12:42;19.50;50.30
51815;DHT22;37874;53.158;6.766;2023-04-24T16:15:08;19.50;50.30
51815;DHT22;37874;53.158;6.766;2023-04-24T16:17:34;19.50;50.20
51815;DHT22;37874;53.158;6.766;2023-04-24T16:19:59;19.50;50.30
51815;DHT22;37874;53.158;6.766;2023-04-24T16:22:25;19.50;50.30
51815;DHT22;37874;53.158;6.766;2023-04-24T16:24:51;19.50;50.30
51815;DHT22;37874;53.158;6.766;2023-04-24T16:27:16;19.50;50.10
51815;DHT22;37874;53.158;6.766;2023-04-24T16:29:42;19.50;50.30
51815;DHT22;37874;53.158;6.766;2023-04-24T16:32:08;19.50;50.40
51815;DHT22;37874;53.158;6.766;2023-04-24T16:34:35;19.40;50.20
51815;DHT22;37874;53.158;6.766;2023-04-24T16:37:00;19.50;50.40
51815;DHT22;37874;53.158;6.766;2023-04-24T16:39:26;19.40;50.30
51815;DHT22;37874;53.158;6.766;2023-04-24T16:41:52;19.40;50.50
51815;DHT22;37874;53.158;6.766;2023-04-24T16:44:19;19.40;50.50
51815;DHT22;37874;53.158;6.766;2023-04-24T16:46:45;19.40;50.50
51815;DHT22;37874;53.158;6.766;2023-04-24T16:49:10;19.40;50.60
51815;DHT22;37874;53.158;6.766;2023-04-24T16:51:36;19.40;50.60
51815;DHT22;37874;53.158;6.766;2023-04-24T16:54:02;19.30;50.70
51815;DHT22;37874;53.158;6.766;2023-04-24T16:56:27;19.30;50.70
51815;DHT22;37874;53.158;6.766;2023-04-24T16:58:53;19.30;50.70
51815;DHT22;37874;53.158;6.766;2023-04-24T17:01:18;19.40;50.70
51815;DHT22;37874;53.158;6.766;2023-04-24T17:03:44;19.30;50.80
51815;DHT22;37874;53.158;6.766;2023-04-24T17:06:11;19.30;50.90
51815;DHT22;37874;53.158;6.766;2023-04-24T17:08:37;19.30;50.90
51815;DHT22;37874;53.158;6.766;2023-04-24T17:11:02;19.30;50.90
51815;DHT22;37874;53.158;6.766;2023-04-24T17:13:28;19.30;50.90
51815;DHT22;37874;53.158;6.766;2023-04-24T17:15:54;19.30;50.90
51815;DHT22;37874;53.158;6.766;2023-04-24T17:18:19;19.30;51.00
51815;DHT22;37874;53.158;6.766;2023-04-24T17:20:45;19.30;51.00
51815;DHT22;37874;53.158;6.766;2023-04-24T17:23:10;19.30;51.00
51815;DHT22;37874;53.158;6.766;2023-04-24T17:25:38;19.30;50.80
51815;DHT22;37874;53.158;6.766;2023-04-24T17:28:22;19.30;50.90
51815;DHT22;37874;53.158;6.766;2023-04-24T17:30:48;19.30;50.90
51815;DHT22;37874;53.158;6.766;2023-04-24T17:33:14;19.30;51.10
51815;DHT22;37874;53.158;6.766;2023-04-24T17:35:40;19.30;51.20
51815;DHT22;37874;53.158;6.766;2023-04-24T17:38:05;19.20;51.00